Terminal Aerodrome Forecast
Issued by NWS

Home | Current Version | Previous Version | Text Only | Print | Product List | Glossary On
Versions: 1 2 3 4 5 6 7 8 9 10 11 12 13 14 15 16 17 18 19 20 21 22 23 24 25 26 27 28 29 30 31 32 33 34 35 36 37 38 39 40 41 42 43 44 45 46 47 48 49 50
000
FTUS45 KBOU 261812 AAA
TAFAPA
TAF AMD
KAPA 261812Z 2618/2718 09005KT P6SM SCT025 BKN080
     FM262100 11012KT P6SM VCSH SCT025 OVC070
      TEMPO 2622/2701 3SM -SN BR SCT015 BKN025
     FM270100 12010KT 2SM -SN SCT008 BKN015
      TEMPO 2701/2705 3/4SM -SN BR BKN007 OVC012
     FM270600 16012KT P6SM VCSH SCT015 OVC030
     FM271100 17010KT P6SM SCT040 BKN070=

USA.gov is the U.S. government's official web portal to all federal, state and local government web resources and services.